KAVX/AVX METAR and TAF weather

Enter ICAO airport designator
Station Type Date Time Source
KAVX METAR 2022/01/23 11:51 UTC NOAA

KAVX 231151Z AUTO 07017G23KT 10SM CLR 16/M06 A3012 RMK AO2 SLP187 7//// T01561061 10161 20139 56006 $


Station Type Date Time Source
KAVX Decoded METAR 2022/01/23 11:51 UTC NOAA

AVALON CATALINA AIRPORT, CA, United States (KAVX) 33-24N 118-25W 482M
Jan 23, 2022 - 06:51 AM EST / 2022.01.23 1151 UTC
Wind: from the ENE (070 degrees) at 20 MPH (17 KT) gusting to 26 MPH (23 KT):0
Visibility: 10 mile(s):0
Sky conditions: clear
Temperature: 60.1 F (15.6 C)
Dew Point: 21.0 F (-6.1 C)
Relative Humidity: 21%
Pressure (altimeter): 30.12 in. Hg (1019 hPa)
Pressure tendency: 0.02 inches (0.6 hPa) lower than three hours ago
ob: KAVX 231151Z AUTO 07017G23KT 10SM CLR 16/M06 A3012 RMK AO2 SLP187 7//// T01561061 10161 20139 56006
cycle: 12

Station Type Date Time Source
KAVX TAF UTC NOAA

Error!

Example: see airport list